Airfield :
LOGIN :

Register | Disclaimer

   EN    FR    IT 

 










Legend :    VFR   Marginal VFR   IFR   Intensive IFR   Very Intensive IFR
Visi :
Ceiling :
>= 8 km
>= 3000ft
5 to 8 km
1000 to 3000 ft
1500m to 5 km
500 to 1000 ft
800 to 1500m
200 to 500 ft
< 800m
< 200 ft
Symbols :   Thunderstorms  Fog  Heavy snow  Heavy precipitations  Wind > 20 kt
SIGMETs :     Misc.  Thunderstorms  Icing  Turbulence  Mountain Waves  Volcanic Ashes






- Airport Elevation : 1083 ft


LRCT - Câmpia Turzii Air Base

CURRENT METAR :
  • 011800Z VRB02KT 9999 SKC 03/M11 Q1018 BLU BLU

EXPIRED METARs :
  • 011700Z VRB04KT 9999 SKC 05/M12 Q1018 BLU BLU
  • 011600Z VRB04KT 9999 SKC 07/M12 Q1018 BLU BLU

TAF TAF LRCT
Valid from the 01 at 18:00 until the 02 at 18:00 UTC


011700Z 0118/0218 VRB04KT 9999 SKC
BECMG 0119/0121 02005KT



MET'MAP, your aeronautical weather chart ! - Copyright ORBIFLY December 2007 - Disclaimer

ORBIFLY MET'MAP TEAM :

Programming & Development : Alexandra Zaïnal
Concept & original design : Baudouin d'Aumeries
Assistance for programming : Marc-Olivier Méhu
Technical & hardware support : Manuel Goepfert

Contact : metmap@orbifly.com




SOURCES & CREDITS :

   NOAA